sensor_id;sensor_type;location;lat;lon;timestamp;P1;durP1;ratioP1;P2;durP2;ratioP2
41456;SDS011;27197;51.752;5.220;2023-07-20T00:01:09;4.83;;;1.92;;
41456;SDS011;27197;51.752;5.220;2023-07-20T00:03:39;3.17;;;1.80;;
41456;SDS011;27197;51.752;5.220;2023-07-20T00:06:12;4.83;;;2.00;;
41456;SDS011;27197;51.752;5.220;2023-07-20T00:08:42;3.60;;;1.52;;
41456;SDS011;27197;51.752;5.220;2023-07-20T00:11:14;4.60;;;1.80;;
41456;SDS011;27197;51.752;5.220;2023-07-20T00:13:44;3.85;;;1.77;;
41456;SDS011;27197;51.752;5.220;2023-07-20T00:16:15;3.80;;;1.80;;
41456;SDS011;27197;51.752;5.220;2023-07-20T00:18:45;3.25;;;1.82;;
41456;SDS011;27197;51.752;5.220;2023-07-20T00:21:18;2.80;;;1.90;;
41456;SDS011;27197;51.752;5.220;2023-07-20T00:23:47;3.87;;;2.02;;
41456;SDS011;27197;51.752;5.220;2023-07-20T00:26:18;3.60;;;2.10;;
41456;SDS011;27197;51.752;5.220;2023-07-20T00:28:49;3.72;;;2.27;;
41456;SDS011;27197;51.752;5.220;2023-07-20T00:31:20;3.85;;;2.12;;
41456;SDS011;27197;51.752;5.220;2023-07-20T00:33:54;4.62;;;2.08;;
41456;SDS011;27197;51.752;5.220;2023-07-20T00:36:24;3.50;;;2.17;;
41456;SDS011;27197;51.752;5.220;2023-07-20T00:38:58;3.40;;;2.00;;
41456;SDS011;27197;51.752;5.220;2023-07-20T00:41:28;3.47;;;1.98;;
41456;SDS011;27197;51.752;5.220;2023-07-20T00:43:58;4.37;;;2.30;;
41456;SDS011;27197;51.752;5.220;2023-07-20T00:46:32;4.55;;;2.67;;
41456;SDS011;27197;51.752;5.220;2023-07-20T00:49:01;4.33;;;2.37;;
41456;SDS011;27197;51.752;5.220;2023-07-20T00:51:33;3.58;;;2.25;;
41456;SDS011;27197;51.752;5.220;2023-07-20T00:54:06;3.58;;;2.00;;
41456;SDS011;27197;51.752;5.220;2023-07-20T01:53:34;3.92;;;2.37;;
41456;SDS011;27197;51.752;5.220;2023-07-20T01:56:07;3.77;;;2.70;;
41456;SDS011;27197;51.752;5.220;2023-07-20T01:58:42;4.30;;;2.70;;
41456;SDS011;27197;51.752;5.220;2023-07-20T02:01:14;4.28;;;2.77;;
41456;SDS011;27197;51.752;5.220;2023-07-20T02:03:44;4.35;;;2.50;;
41456;SDS011;27197;51.752;5.220;2023-07-20T02:06:15;5.10;;;2.50;;
41456;SDS011;27197;51.752;5.220;2023-07-20T02:08:46;4.15;;;2.20;;
41456;SDS011;27197;51.752;5.220;2023-07-20T02:11:19;3.55;;;2.30;;
41456;SDS011;27197;51.752;5.220;2023-07-20T02:13:50;3.52;;;2.22;;
41456;SDS011;27197;51.752;5.220;2023-07-20T02:16:20;3.22;;;2.00;;
41456;SDS011;27197;51.752;5.220;2023-07-20T02:18:54;3.65;;;2.40;;
41456;SDS011;27197;51.752;5.220;2023-07-20T02:21:24;4.37;;;2.15;;
41456;SDS011;27197;51.752;5.220;2023-07-20T02:23:57;5.30;;;2.25;;
41456;SDS011;27197;51.752;5.220;2023-07-20T02:26:27;3.58;;;2.08;;
41456;SDS011;27197;51.752;5.220;2023-07-20T02:28:57;4.05;;;2.05;;
41456;SDS011;27197;51.752;5.220;2023-07-20T02:31:31;4.25;;;2.25;;
41456;SDS011;27197;51.752;5.220;2023-07-20T02:34:01;3.85;;;2.20;;
41456;SDS011;27197;51.752;5.220;2023-07-20T02:36:36;3.90;;;2.00;;
41456;SDS011;27197;51.752;5.220;2023-07-20T02:39:06;5.72;;;2.17;;
41456;SDS011;27197;51.752;5.220;2023-07-20T02:41:39;3.37;;;1.85;;
41456;SDS011;27197;51.752;5.220;2023-07-20T02:44:13;2.83;;;1.80;;
41456;SDS011;27197;51.752;5.220;2023-07-20T02:46:46;4.62;;;1.72;;
41456;SDS011;27197;51.752;5.220;2023-07-20T02:49:15;5.22;;;2.00;;
41456;SDS011;27197;51.752;5.220;2023-07-20T02:51:47;2.90;;;2.05;;
41456;SDS011;27197;51.752;5.220;2023-07-20T02:54:17;2.58;;;1.60;;
41456;SDS011;27197;51.752;5.220;2023-07-20T02:56:51;3.00;;;1.70;;
41456;SDS011;27197;51.752;5.220;2023-07-20T02:59:21;2.80;;;1.80;;
41456;SDS011;27197;51.752;5.220;2023-07-20T03:01:54;3.25;;;1.70;;
41456;SDS011;27197;51.752;5.220;2023-07-20T03:04:29;2.70;;;1.67;;
41456;SDS011;27197;51.752;5.220;2023-07-20T03:06:58;3.35;;;1.82;;
41456;SDS011;27197;51.752;5.220;2023-07-20T03:09:28;2.83;;;1.60;;
41456;SDS011;27197;51.752;5.220;2023-07-20T03:12:00;2.52;;;1.70;;
41456;SDS011;27197;51.752;5.220;2023-07-20T03:14:31;3.37;;;1.80;;
41456;SDS011;27197;51.752;5.220;2023-07-20T03:17:01;3.80;;;1.60;;
41456;SDS011;27197;51.752;5.220;2023-07-20T03:19:35;4.15;;;1.80;;
41456;SDS011;27197;51.752;5.220;2023-07-20T03:22:05;3.22;;;1.90;;
41456;SDS011;27197;51.752;5.220;2023-07-20T03:24:36;3.25;;;1.87;;
41456;SDS011;27197;51.752;5.220;2023-07-20T03:27:06;2.67;;;1.57;;
41456;SDS011;27197;51.752;5.220;2023-07-20T03:29:38;3.22;;;1.72;;
41456;SDS011;27197;51.752;5.220;2023-07-20T03:32:07;3.08;;;1.70;;
41456;SDS011;27197;51.752;5.220;2023-07-20T03:34:39;3.37;;;1.87;;
41456;SDS011;27197;51.752;5.220;2023-07-20T03:37:10;3.02;;;2.12;;
41456;SDS011;27197;51.752;5.220;2023-07-20T03:39:45;2.87;;;1.80;;
41456;SDS011;27197;51.752;5.220;2023-07-20T03:42:15;3.85;;;2.08;;
41456;SDS011;27197;51.752;5.220;2023-07-20T03:44:47;3.65;;;2.00;;
41456;SDS011;27197;51.752;5.220;2023-07-20T03:47:16;4.12;;;1.80;;
41456;SDS011;27197;51.752;5.220;2023-07-20T03:49:47;7.60;;;2.05;;
41456;SDS011;27197;51.752;5.220;2023-07-20T03:52:21;3.50;;;2.00;;
41456;SDS011;27197;51.752;5.220;2023-07-20T03:54:55;3.37;;;1.90;;
41456;SDS011;27197;51.752;5.220;2023-07-20T03:57:27;3.55;;;2.10;;
41456;SDS011;27197;51.752;5.220;2023-07-20T03:59:57;2.20;;;1.60;;
41456;SDS011;27197;51.752;5.220;2023-07-20T04:02:28;2.77;;;1.95;;
41456;SDS011;27197;51.752;5.220;2023-07-20T04:05:01;3.15;;;1.85;;
41456;SDS011;27197;51.752;5.220;2023-07-20T04:07:31;3.80;;;2.12;;
41456;SDS011;27197;51.752;5.220;2023-07-20T04:10:03;3.58;;;2.00;;
41456;SDS011;27197;51.752;5.220;2023-07-20T04:12:33;3.98;;;2.22;;
41456;SDS011;27197;51.752;5.220;2023-07-20T04:15:03;4.12;;;2.27;;
41456;SDS011;27197;51.752;5.220;2023-07-20T04:17:39;3.52;;;2.08;;
41456;SDS011;27197;51.752;5.220;2023-07-20T04:20:10;3.42;;;2.30;;
41456;SDS011;27197;51.752;5.220;2023-07-20T04:22:44;3.45;;;2.35;;
41456;SDS011;27197;51.752;5.220;2023-07-20T04:25:13;3.08;;;2.02;;
41456;SDS011;27197;51.752;5.220;2023-07-20T04:27:45;3.60;;;2.15;;
41456;SDS011;27197;51.752;5.220;2023-07-20T04:30:20;4.50;;;2.10;;
41456;SDS011;27197;51.752;5.220;2023-07-20T04:32:52;4.45;;;2.20;;
41456;SDS011;27197;51.752;5.220;2023-07-20T04:35:46;4.45;;;2.10;;
41456;SDS011;27197;51.752;5.220;2023-07-20T04:38:20;4.95;;;2.72;;
41456;SDS011;27197;51.752;5.220;2023-07-20T04:40:52;4.42;;;2.30;;
41456;SDS011;27197;51.752;5.220;2023-07-20T04:43:27;3.45;;;2.17;;
41456;SDS011;27197;51.752;5.220;2023-07-20T04:45:55;4.25;;;2.35;;
41456;SDS011;27197;51.752;5.220;2023-07-20T04:48:29;4.17;;;2.17;;
41456;SDS011;27197;51.752;5.220;2023-07-20T04:51:02;3.08;;;2.00;;
41456;SDS011;27197;51.752;5.220;2023-07-20T04:53:36;3.58;;;2.20;;
41456;SDS011;27197;51.752;5.220;2023-07-20T04:56:07;3.12;;;1.95;;
41456;SDS011;27197;51.752;5.220;2023-07-20T04:58:39;4.10;;;2.30;;
41456;SDS011;27197;51.752;5.220;2023-07-20T05:01:11;3.37;;;1.95;;
41456;SDS011;27197;51.752;5.220;2023-07-20T05:03:42;4.47;;;2.25;;
41456;SDS011;27197;51.752;5.220;2023-07-20T05:06:12;6.12;;;1.98;;
41456;SDS011;27197;51.752;5.220;2023-07-20T05:08:45;3.65;;;2.02;;
41456;SDS011;27197;51.752;5.220;2023-07-20T05:11:16;3.87;;;2.17;;
41456;SDS011;27197;51.752;5.220;2023-07-20T05:13:48;3.83;;;2.35;;
41456;SDS011;27197;51.752;5.220;2023-07-20T05:16:18;3.75;;;2.20;;
41456;SDS011;27197;51.752;5.220;2023-07-20T05:18:51;2.60;;;1.90;;
41456;SDS011;27197;51.752;5.220;2023-07-20T05:21:21;3.75;;;1.95;;
41456;SDS011;27197;51.752;5.220;2023-07-20T05:23:51;2.87;;;2.02;;
41456;SDS011;27197;51.752;5.220;2023-07-20T05:26:25;3.20;;;1.90;;
41456;SDS011;27197;51.752;5.220;2023-07-20T05:28:55;3.55;;;2.35;;
41456;SDS011;27197;51.752;5.220;2023-07-20T05:31:28;3.47;;;1.90;;
41456;SDS011;27197;51.752;5.220;2023-07-20T05:33:57;2.80;;;1.82;;
41456;SDS011;27197;51.752;5.220;2023-07-20T05:36:27;3.02;;;1.98;;
41456;SDS011;27197;51.752;5.220;2023-07-20T05:38:56;3.37;;;2.00;;
41456;SDS011;27197;51.752;5.220;2023-07-20T05:41:27;4.10;;;1.95;;
41456;SDS011;27197;51.752;5.220;2023-07-20T05:44:01;3.58;;;2.02;;
41456;SDS011;27197;51.752;5.220;2023-07-20T05:46:34;2.98;;;1.90;;
41456;SDS011;27197;51.752;5.220;2023-07-20T05:49:05;3.17;;;1.55;;
41456;SDS011;27197;51.752;5.220;2023-07-20T05:51:37;2.95;;;1.50;;
41456;SDS011;27197;51.752;5.220;2023-07-20T05:54:08;2.77;;;1.70;;
41456;SDS011;27197;51.752;5.220;2023-07-20T05:56:41;5.08;;;1.57;;
41456;SDS011;27197;51.752;5.220;2023-07-20T05:59:12;2.90;;;1.70;;
41456;SDS011;27197;51.752;5.220;2023-07-20T06:01:43;4.12;;;1.80;;
41456;SDS011;27197;51.752;5.220;2023-07-20T06:04:17;3.75;;;1.70;;
41456;SDS011;27197;51.752;5.220;2023-07-20T06:06:48;4.83;;;2.08;;
41456;SDS011;27197;51.752;5.220;2023-07-20T06:09:22;8.95;;;2.67;;
41456;SDS011;27197;51.752;5.220;2023-07-20T06:11:52;6.42;;;2.20;;
41456;SDS011;27197;51.752;5.220;2023-07-20T06:14:25;9.33;;;2.67;;
41456;SDS011;27197;51.752;5.220;2023-07-20T06:16:57;9.23;;;2.60;;
41456;SDS011;27197;51.752;5.220;2023-07-20T06:19:27;7.17;;;1.75;;
41456;SDS011;27197;51.752;5.220;2023-07-20T06:21:58;6.90;;;1.85;;
41456;SDS011;27197;51.752;5.220;2023-07-20T06:24:30;9.20;;;2.12;;
41456;SDS011;27197;51.752;5.220;2023-07-20T06:27:01;7.53;;;1.70;;
41456;SDS011;27197;51.752;5.220;2023-07-20T06:29:32;5.50;;;1.75;;
41456;SDS011;27197;51.752;5.220;2023-07-20T06:32:03;6.97;;;1.70;;
41456;SDS011;27197;51.752;5.220;2023-07-20T06:34:37;9.75;;;1.82;;
41456;SDS011;27197;51.752;5.220;2023-07-20T06:37:10;10.08;;;1.95;;
41456;SDS011;27197;51.752;5.220;2023-07-20T06:39:45;7.55;;;1.90;;
41456;SDS011;27197;51.752;5.220;2023-07-20T06:42:18;4.70;;;1.70;;
41456;SDS011;27197;51.752;5.220;2023-07-20T06:44:48;12.68;;;2.20;;
41456;SDS011;27197;51.752;5.220;2023-07-20T06:47:21;6.53;;;2.12;;
41456;SDS011;27197;51.752;5.220;2023-07-20T06:49:51;9.00;;;2.00;;
41456;SDS011;27197;51.752;5.220;2023-07-20T06:52:27;7.12;;;1.82;;
41456;SDS011;27197;51.752;5.220;2023-07-20T06:55:03;5.20;;;2.30;;
41456;SDS011;27197;51.752;5.220;2023-07-20T06:57:37;3.65;;;1.60;;
41456;SDS011;27197;51.752;5.220;2023-07-20T07:00:07;4.67;;;1.52;;
41456;SDS011;27197;51.752;5.220;2023-07-20T07:02:39;5.97;;;1.85;;
41456;SDS011;27197;51.752;5.220;2023-07-20T07:05:14;3.47;;;1.45;;
41456;SDS011;27197;51.752;5.220;2023-07-20T07:07:42;3.58;;;1.27;;
41456;SDS011;27197;51.752;5.220;2023-07-20T07:10:13;4.78;;;1.50;;
41456;SDS011;27197;51.752;5.220;2023-07-20T07:12:45;5.45;;;1.25;;
41456;SDS011;27197;51.752;5.220;2023-07-20T07:15:16;3.95;;;1.17;;
41456;SDS011;27197;51.752;5.220;2023-07-20T07:17:48;5.62;;;1.77;;
41456;SDS011;27197;51.752;5.220;2023-07-20T07:20:19;5.62;;;1.27;;
41456;SDS011;27197;51.752;5.220;2023-07-20T07:22:50;3.70;;;1.20;;
41456;SDS011;27197;51.752;5.220;2023-07-20T07:25:21;2.87;;;1.27;;
41456;SDS011;27197;51.752;5.220;2023-07-20T07:27:58;3.98;;;1.20;;
41456;SDS011;27197;51.752;5.220;2023-07-20T07:30:27;4.50;;;1.07;;
41456;SDS011;27197;51.752;5.220;2023-07-20T07:32:58;4.33;;;1.40;;
41456;SDS011;27197;51.752;5.220;2023-07-20T07:35:27;4.92;;;1.12;;
41456;SDS011;27197;51.752;5.220;2023-07-20T07:37:57;7.12;;;1.35;;
41456;SDS011;27197;51.752;5.220;2023-07-20T07:40:31;4.37;;;1.30;;
41456;SDS011;27197;51.752;5.220;2023-07-20T07:43:01;1.95;;;1.10;;
41456;SDS011;27197;51.752;5.220;2023-07-20T07:45:35;2.87;;;1.27;;
41456;SDS011;27197;51.752;5.220;2023-07-20T07:48:05;2.52;;;0.80;;
41456;SDS011;27197;51.752;5.220;2023-07-20T07:50:55;4.12;;;1.20;;
41456;SDS011;27197;51.752;5.220;2023-07-20T07:53:24;5.45;;;1.10;;
41456;SDS011;27197;51.752;5.220;2023-07-20T07:55:55;2.95;;;0.88;;
41456;SDS011;27197;51.752;5.220;2023-07-20T07:58:30;1.75;;;0.98;;
41456;SDS011;27197;51.752;5.220;2023-07-20T08:00:59;3.52;;;1.20;;
41456;SDS011;27197;51.752;5.220;2023-07-20T08:03:28;2.35;;;0.90;;
41456;SDS011;27197;51.752;5.220;2023-07-20T08:06:03;1.98;;;0.85;;
41456;SDS011;27197;51.752;5.220;2023-07-20T08:08:32;3.52;;;1.22;;
41456;SDS011;27197;51.752;5.220;2023-07-20T08:11:03;3.42;;;0.98;;
41456;SDS011;27197;51.752;5.220;2023-07-20T08:13:38;3.17;;;0.98;;
41456;SDS011;27197;51.752;5.220;2023-07-20T08:16:09;2.52;;;1.02;;
41456;SDS011;27197;51.752;5.220;2023-07-20T08:18:41;3.62;;;1.30;;
41456;SDS011;27197;51.752;5.220;2023-07-20T08:21:15;2.98;;;0.90;;
41456;SDS011;27197;51.752;5.220;2023-07-20T08:23:48;2.62;;;0.95;;
41456;SDS011;27197;51.752;5.220;2023-07-20T08:26:21;3.08;;;1.32;;
41456;SDS011;27197;51.752;5.220;2023-07-20T08:28:54;3.55;;;0.85;;
41456;SDS011;27197;51.752;5.220;2023-07-20T08:31:26;2.75;;;1.17;;
41456;SDS011;27197;51.752;5.220;2023-07-20T08:33:59;2.65;;;1.17;;
41456;SDS011;27197;51.752;5.220;2023-07-20T08:36:29;3.02;;;1.00;;
41456;SDS011;27197;51.752;5.220;2023-07-20T08:39:03;1.80;;;0.95;;
41456;SDS011;27197;51.752;5.220;2023-07-20T08:41:35;1.77;;;0.82;;
41456;SDS011;27197;51.752;5.220;2023-07-20T08:44:11;1.70;;;0.75;;
41456;SDS011;27197;51.752;5.220;2023-07-20T08:46:43;2.40;;;1.07;;
41456;SDS011;27197;51.752;5.220;2023-07-20T08:49:17;1.87;;;0.80;;
41456;SDS011;27197;51.752;5.220;2023-07-20T08:51:53;1.62;;;0.72;;
41456;SDS011;27197;51.752;5.220;2023-07-20T08:54:24;1.98;;;0.85;;
41456;SDS011;27197;51.752;5.220;2023-07-20T08:56:56;2.25;;;0.88;;
41456;SDS011;27197;51.752;5.220;2023-07-20T08:59:28;1.87;;;0.70;;
41456;SDS011;27197;51.752;5.220;2023-07-20T09:02:02;1.05;;;0.62;;
41456;SDS011;27197;51.752;5.220;2023-07-20T09:04:34;2.37;;;0.98;;
41456;SDS011;27197;51.752;5.220;2023-07-20T09:07:05;2.87;;;0.80;;
41456;SDS011;27197;51.752;5.220;2023-07-20T09:09:39;2.12;;;0.78;;
41456;SDS011;27197;51.752;5.220;2023-07-20T09:12:14;1.50;;;0.80;;
41456;SDS011;27197;51.752;5.220;2023-07-20T09:14:44;3.40;;;0.93;;
41456;SDS011;27197;51.752;5.220;2023-07-20T09:17:17;2.58;;;0.80;;
41456;SDS011;27197;51.752;5.220;2023-07-20T09:19:47;1.40;;;0.65;;
41456;SDS011;27197;51.752;5.220;2023-07-20T09:22:21;1.57;;;0.90;;
41456;SDS011;27197;51.752;5.220;2023-07-20T09:24:50;2.05;;;0.98;;
41456;SDS011;27197;51.752;5.220;2023-07-20T09:27:46;1.47;;;0.62;;
41456;SDS011;27197;51.752;5.220;2023-07-20T09:30:02;4.00;;;0.82;;
41456;SDS011;27197;51.752;5.220;2023-07-20T09:32:44;2.02;;;1.00;;
41456;SDS011;27197;51.752;5.220;2023-07-20T09:35:17;1.65;;;0.70;;
41456;SDS011;27197;51.752;5.220;2023-07-20T09:37:57;1.82;;;0.90;;
41456;SDS011;27197;51.752;5.220;2023-07-20T09:40:28;1.65;;;0.80;;
41456;SDS011;27197;51.752;5.220;2023-07-20T09:43:00;2.00;;;1.30;;
41456;SDS011;27197;51.752;5.220;2023-07-20T09:45:30;1.87;;;1.10;;
41456;SDS011;27197;51.752;5.220;2023-07-20T09:48:04;2.87;;;1.00;;
41456;SDS011;27197;51.752;5.220;2023-07-20T09:50:42;1.57;;;0.90;;
41456;SDS011;27197;51.752;5.220;2023-07-20T09:53:15;2.05;;;0.85;;
41456;SDS011;27197;51.752;5.220;2023-07-20T09:55:46;1.42;;;0.80;;
41456;SDS011;27197;51.752;5.220;2023-07-20T09:58:22;2.85;;;1.07;;
41456;SDS011;27197;51.752;5.220;2023-07-20T10:00:52;2.25;;;1.00;;
41456;SDS011;27197;51.752;5.220;2023-07-20T10:03:28;2.10;;;1.12;;
41456;SDS011;27197;51.752;5.220;2023-07-20T10:05:57;2.08;;;1.42;;
41456;SDS011;27197;51.752;5.220;2023-07-20T10:08:33;3.52;;;1.70;;
41456;SDS011;27197;51.752;5.220;2023-07-20T10:11:04;1.80;;;1.20;;
41456;SDS011;27197;51.752;5.220;2023-07-20T10:13:38;2.30;;;1.70;;
41456;SDS011;27197;51.752;5.220;2023-07-20T10:16:12;2.77;;;1.92;;
41456;SDS011;27197;51.752;5.220;2023-07-20T10:18:50;3.35;;;2.22;;
41456;SDS011;27197;51.752;5.220;2023-07-20T10:21:24;5.00;;;2.40;;
41456;SDS011;27197;51.752;5.220;2023-07-20T10:23:56;3.42;;;2.50;;
41456;SDS011;27197;51.752;5.220;2023-07-20T10:26:30;4.10;;;2.55;;
41456;SDS011;27197;51.752;5.220;2023-07-20T10:29:00;4.33;;;3.45;;
41456;SDS011;27197;51.752;5.220;2023-07-20T10:31:32;3.35;;;2.30;;
41456;SDS011;27197;51.752;5.220;2023-07-20T10:34:03;3.72;;;2.80;;
41456;SDS011;27197;51.752;5.220;2023-07-20T10:36:33;3.70;;;2.83;;
41456;SDS011;27197;51.752;5.220;2023-07-20T10:39:04;3.58;;;2.70;;
41456;SDS011;27197;51.752;5.220;2023-07-20T10:41:39;3.45;;;2.80;;
41456;SDS011;27197;51.752;5.220;2023-07-20T10:44:08;3.75;;;3.00;;
41456;SDS011;27197;51.752;5.220;2023-07-20T10:46:44;4.20;;;2.75;;
41456;SDS011;27197;51.752;5.220;2023-07-20T10:49:15;4.00;;;3.37;;
41456;SDS011;27197;51.752;5.220;2023-07-20T10:51:48;4.37;;;2.85;;
41456;SDS011;27197;51.752;5.220;2023-07-20T10:56:48;4.20;;;2.17;;
41456;SDS011;27197;51.752;5.220;2023-07-20T11:02:05;3.50;;;2.70;;
41456;SDS011;27197;51.752;5.220;2023-07-20T11:04:45;4.37;;;2.77;;
41456;SDS011;27197;51.752;5.220;2023-07-20T11:07:16;3.85;;;2.60;;
41456;SDS011;27197;51.752;5.220;2023-07-20T11:09:50;3.30;;;2.65;;
41456;SDS011;27197;51.752;5.220;2023-07-20T11:12:22;3.42;;;2.75;;
41456;SDS011;27197;51.752;5.220;2023-07-20T11:14:56;4.35;;;2.22;;
41456;SDS011;27197;51.752;5.220;2023-07-20T11:17:31;4.15;;;2.72;;
41456;SDS011;27197;51.752;5.220;2023-07-20T11:22:52;2.90;;;1.95;;
41456;SDS011;27197;51.752;5.220;2023-07-20T11:25:25;3.95;;;2.65;;
41456;SDS011;27197;51.752;5.220;2023-07-20T11:27:55;4.47;;;2.45;;
41456;SDS011;27197;51.752;5.220;2023-07-20T11:30:33;4.10;;;2.40;;
41456;SDS011;27197;51.752;5.220;2023-07-20T11:33:03;3.27;;;1.60;;
41456;SDS011;27197;51.752;5.220;2023-07-20T11:35:45;4.12;;;2.35;;
41456;SDS011;27197;51.752;5.220;2023-07-20T11:38:20;2.65;;;1.80;;
41456;SDS011;27197;51.752;5.220;2023-07-20T11:40:49;2.85;;;1.98;;
41456;SDS011;27197;51.752;5.220;2023-07-20T11:43:22;6.37;;;2.50;;
41456;SDS011;27197;51.752;5.220;2023-07-20T11:45:55;3.10;;;2.10;;
41456;SDS011;27197;51.752;5.220;2023-07-20T11:48:27;2.52;;;1.90;;
41456;SDS011;27197;51.752;5.220;2023-07-20T11:50:59;3.05;;;2.20;;
41456;SDS011;27197;51.752;5.220;2023-07-20T11:53:35;2.70;;;1.90;;
41456;SDS011;27197;51.752;5.220;2023-07-20T11:56:06;2.77;;;2.02;;
41456;SDS011;27197;51.752;5.220;2023-07-20T11:58:47;3.72;;;1.90;;
41456;SDS011;27197;51.752;5.220;2023-07-20T12:01:17;2.55;;;2.10;;
41456;SDS011;27197;51.752;5.220;2023-07-20T12:03:52;3.08;;;1.80;;
41456;SDS011;27197;51.752;5.220;2023-07-20T12:06:27;2.90;;;2.00;;
41456;SDS011;27197;51.752;5.220;2023-07-20T12:08:57;2.90;;;1.87;;
41456;SDS011;27197;51.752;5.220;2023-07-20T12:11:38;3.37;;;1.90;;
41456;SDS011;27197;51.752;5.220;2023-07-20T12:14:08;2.30;;;1.67;;
41456;SDS011;27197;51.752;5.220;2023-07-20T12:16:42;2.10;;;1.80;;
41456;SDS011;27197;51.752;5.220;2023-07-20T12:19:12;2.77;;;1.82;;
41456;SDS011;27197;51.752;5.220;2023-07-20T12:21:47;2.12;;;1.42;;
41456;SDS011;27197;51.752;5.220;2023-07-20T12:24:15;2.58;;;2.05;;
41456;SDS011;27197;51.752;5.220;2023-07-20T12:26:48;3.67;;;1.72;;
41456;SDS011;27197;51.752;5.220;2023-07-20T12:29:22;6.53;;;1.80;;
41456;SDS011;27197;51.752;5.220;2023-07-20T12:31:51;2.75;;;1.85;;
41456;SDS011;27197;51.752;5.220;2023-07-20T12:34:28;2.30;;;1.60;;
41456;SDS011;27197;51.752;5.220;2023-07-20T12:36:58;2.62;;;1.67;;
41456;SDS011;27197;51.752;5.220;2023-07-20T12:39:35;2.55;;;1.77;;
41456;SDS011;27197;51.752;5.220;2023-07-20T12:42:05;2.87;;;1.85;;
41456;SDS011;27197;51.752;5.220;2023-07-20T12:44:36;2.58;;;1.82;;
41456;SDS011;27197;51.752;5.220;2023-07-20T12:47:09;2.87;;;1.77;;
41456;SDS011;27197;51.752;5.220;2023-07-20T12:49:38;1.92;;;1.47;;
41456;SDS011;27197;51.752;5.220;2023-07-20T12:52:12;2.47;;;1.57;;
41456;SDS011;27197;51.752;5.220;2023-07-20T12:54:42;2.42;;;1.80;;
41456;SDS011;27197;51.752;5.220;2023-07-20T12:57:13;2.58;;;1.52;;
41456;SDS011;27197;51.752;5.220;2023-07-20T12:59:42;3.35;;;1.67;;
41456;SDS011;27197;51.752;5.220;2023-07-20T13:02:17;2.60;;;1.70;;
41456;SDS011;27197;51.752;5.220;2023-07-20T13:04:48;2.22;;;1.70;;
41456;SDS011;27197;51.752;5.220;2023-07-20T13:07:22;3.80;;;1.67;;
41456;SDS011;27197;51.752;5.220;2023-07-20T13:09:51;2.20;;;1.45;;
41456;SDS011;27197;51.752;5.220;2023-07-20T13:12:24;2.00;;;1.60;;
41456;SDS011;27197;51.752;5.220;2023-07-20T13:14:54;3.00;;;1.50;;
41456;SDS011;27197;51.752;5.220;2023-07-20T13:17:27;4.05;;;1.70;;
41456;SDS011;27197;51.752;5.220;2023-07-20T13:19:58;2.50;;;1.45;;
41456;SDS011;27197;51.752;5.220;2023-07-20T13:22:28;2.50;;;1.60;;
41456;SDS011;27197;51.752;5.220;2023-07-20T13:25:01;3.02;;;1.70;;
41456;SDS011;27197;51.752;5.220;2023-07-20T13:27:31;2.60;;;1.60;;
41456;SDS011;27197;51.752;5.220;2023-07-20T13:30:03;3.65;;;1.80;;
41456;SDS011;27197;51.752;5.220;2023-07-20T13:32:36;2.05;;;1.42;;
41456;SDS011;27197;51.752;5.220;2023-07-20T13:35:11;2.37;;;1.60;;
41456;SDS011;27197;51.752;5.220;2023-07-20T13:37:41;2.08;;;1.50;;
41456;SDS011;27197;51.752;5.220;2023-07-20T13:40:15;2.87;;;1.57;;
41456;SDS011;27197;51.752;5.220;2023-07-20T13:42:45;2.20;;;1.57;;
41456;SDS011;27197;51.752;5.220;2023-07-20T13:45:15;2.42;;;1.17;;
41456;SDS011;27197;51.752;5.220;2023-07-20T13:47:47;1.90;;;1.30;;
41456;SDS011;27197;51.752;5.220;2023-07-20T13:53:13;3.08;;;1.40;;
41456;SDS011;27197;51.752;5.220;2023-07-20T13:55:45;3.17;;;1.90;;
41456;SDS011;27197;51.752;5.220;2023-07-20T13:58:15;2.80;;;1.82;;
41456;SDS011;27197;51.752;5.220;2023-07-20T14:00:50;2.12;;;1.50;;
41456;SDS011;27197;51.752;5.220;2023-07-20T15:18:13;2.70;;;1.17;;
41456;SDS011;27197;51.752;5.220;2023-07-20T15:20:45;1.90;;;1.40;;
41456;SDS011;27197;51.752;5.220;2023-07-20T15:59:19;1.62;;;1.00;;
41456;SDS011;27197;51.752;5.220;2023-07-20T16:04:17;3.55;;;1.55;;
41456;SDS011;27197;51.752;5.220;2023-07-20T16:06:49;2.37;;;1.20;;
41456;SDS011;27197;51.752;5.220;2023-07-20T16:09:19;2.37;;;1.27;;
41456;SDS011;27197;51.752;5.220;2023-07-20T16:11:53;1.65;;;1.10;;
41456;SDS011;27197;51.752;5.220;2023-07-20T16:14:26;2.10;;;1.20;;
41456;SDS011;27197;51.752;5.220;2023-07-20T16:16:57;4.28;;;1.75;;
41456;SDS011;27197;51.752;5.220;2023-07-20T16:19:29;3.05;;;1.50;;
41456;SDS011;27197;51.752;5.220;2023-07-20T16:22:01;1.92;;;1.20;;
41456;SDS011;27197;51.752;5.220;2023-07-20T16:24:34;1.85;;;1.20;;
41456;SDS011;27197;51.752;5.220;2023-07-20T16:27:05;1.70;;;1.30;;
41456;SDS011;27197;51.752;5.220;2023-07-20T16:29:39;2.52;;;1.60;;
41456;SDS011;27197;51.752;5.220;2023-07-20T16:32:15;1.80;;;1.30;;
41456;SDS011;27197;51.752;5.220;2023-07-20T16:34:45;2.80;;;1.80;;
41456;SDS011;27197;51.752;5.220;2023-07-20T16:37:15;3.08;;;2.42;;
41456;SDS011;27197;51.752;5.220;2023-07-20T16:39:49;3.65;;;2.10;;
41456;SDS011;27197;51.752;5.220;2023-07-20T16:42:19;2.12;;;1.40;;
41456;SDS011;27197;51.752;5.220;2023-07-20T16:44:54;3.83;;;2.33;;
41456;SDS011;27197;51.752;5.220;2023-07-20T16:47:23;2.45;;;1.67;;
41456;SDS011;27197;51.752;5.220;2023-07-20T16:49:54;2.47;;;1.62;;
41456;SDS011;27197;51.752;5.220;2023-07-20T17:31:38;3.85;;;2.22;;
41456;SDS011;27197;51.752;5.220;2023-07-20T17:34:12;2.70;;;1.90;;
41456;SDS011;27197;51.752;5.220;2023-07-20T17:37:00;2.20;;;1.50;;
41456;SDS011;27197;51.752;5.220;2023-07-20T17:39:34;4.25;;;2.10;;
41456;SDS011;27197;51.752;5.220;2023-07-20T17:42:06;3.33;;;2.40;;
41456;SDS011;27197;51.752;5.220;2023-07-20T17:44:40;2.98;;;1.72;;
41456;SDS011;27197;51.752;5.220;2023-07-20T17:47:08;2.50;;;1.70;;
41456;SDS011;27197;51.752;5.220;2023-07-20T17:49:41;3.00;;;1.60;;
41456;SDS011;27197;51.752;5.220;2023-07-20T18:05:02;5.33;;;2.92;;
41456;SDS011;27197;51.752;5.220;2023-07-20T18:07:38;4.35;;;2.52;;
41456;SDS011;27197;51.752;5.220;2023-07-20T18:10:10;3.37;;;1.87;;
41456;SDS011;27197;51.752;5.220;2023-07-20T18:12:39;3.50;;;1.70;;
41456;SDS011;27197;51.752;5.220;2023-07-20T18:15:12;2.85;;;1.30;;
41456;SDS011;27197;51.752;5.220;2023-07-20T18:17:45;4.12;;;1.52;;
41456;SDS011;27197;51.752;5.220;2023-07-20T18:20:24;2.77;;;1.50;;
41456;SDS011;27197;51.752;5.220;2023-07-20T18:22:57;2.10;;;1.30;;
41456;SDS011;27197;51.752;5.220;2023-07-20T18:25:28;3.45;;;1.35;;
41456;SDS011;27197;51.752;5.220;2023-07-20T18:28:03;3.50;;;1.62;;
41456;SDS011;27197;51.752;5.220;2023-07-20T18:30:34;2.33;;;1.40;;
41456;SDS011;27197;51.752;5.220;2023-07-20T18:33:09;2.08;;;1.20;;
41456;SDS011;27197;51.752;5.220;2023-07-20T18:35:39;3.52;;;1.75;;
41456;SDS011;27197;51.752;5.220;2023-07-20T18:38:13;4.03;;;2.08;;
41456;SDS011;27197;51.752;5.220;2023-07-20T18:40:44;3.77;;;1.60;;
41456;SDS011;27197;51.752;5.220;2023-07-20T18:43:17;2.70;;;1.70;;
41456;SDS011;27197;51.752;5.220;2023-07-20T18:45:47;2.62;;;1.80;;
41456;SDS011;27197;51.752;5.220;2023-07-20T18:50:46;3.15;;;1.65;;
41456;SDS011;27197;51.752;5.220;2023-07-20T18:53:15;4.08;;;1.70;;
41456;SDS011;27197;51.752;5.220;2023-07-20T18:55:51;3.58;;;1.82;;
41456;SDS011;27197;51.752;5.220;2023-07-20T18:58:21;3.47;;;1.60;;
41456;SDS011;27197;51.752;5.220;2023-07-20T19:00:57;3.62;;;1.75;;
41456;SDS011;27197;51.752;5.220;2023-07-20T19:03:23;2.45;;;1.60;;
41456;SDS011;27197;51.752;5.220;2023-07-20T19:05:58;3.15;;;1.60;;
41456;SDS011;27197;51.752;5.220;2023-07-20T19:08:27;3.70;;;2.02;;
41456;SDS011;27197;51.752;5.220;2023-07-20T19:11:01;3.17;;;1.60;;
41456;SDS011;27197;51.752;5.220;2023-07-20T19:13:32;3.65;;;1.80;;